Star Markella — V7KL3 — position and weather

sailwx.info

Track history (hours):
 
Tides and Currents Weather Stations Pressure Air Temp Water Temp Dewpoint Dewpoint Depression Visibility Wind Speed Wind Dir Waves Ship Positions

Star Markella

Last reported at 2015-Jul-05 03:09 UTC. Time now 2015-Jul-06 09:14 UTC.
Position N 31°60' E 119°59'.

Length 229 m; draft 10.4 m.

Type: Cargo ship. MMSI: 538002640.

Date/timePositionNaut miles runAvg speedWind from/ knotsBaromVisibWave heightAir tempDewpointWater temp
2015-Jul-05 03:09N 31°60' E 119°59'5 8.2
2015-Jul-05 02:33N 31°57' E 120°05'9 8.7
2015-Jul-05 01:31N 31°56' E 120°15'8 7.8
2015-Jul-05 00:32N 31°58' E 120°24'6 6.2
2015-Jul-04 23:30N 32°02' E 120°30'1010.0
2015-Jul-04 22:33N 32°00' E 120°41'10 9.7
2015-Jul-04 21:33N 31°58' E 120°52'1211.6
2015-Jul-04 20:33N 31°47' E 120°57'1211.8
2015-Jul-04 19:33N 31°42' E 121°09'10 9.6
2015-Jul-04 18:33N 31°36' E 121°19'0 0.0
2015-Jul-04 17:33N 31°36' E 121°19'0 0.2
2015-Jul-04 16:33N 31°36' E 121°19'0 0.1
2015-Jul-04 15:33N 31°36' E 121°19'0 0.1
2015-Jul-04 14:33N 31°36' E 121°19'0 0.1
2015-Jul-04 13:33N 31°36' E 121°19'0 0.0
2015-Jul-04 12:31N 31°36' E 121°19'0 0.1
2015-Jul-04 11:33N 31°36' E 121°19'0 0.0
2015-Jul-04 10:33N 31°36' E 121°19'0 0.0
2015-Jul-04 09:33N 31°36' E 121°19'2 1.8
2015-Jul-04 08:33N 31°34' E 121°19'9 9.4
2015-Jul-04 07:33N 31°28' E 121°28'7 7.3
2015-Jul-04 06:34N 31°24' E 121°35'1010.0
2015-Jul-04 05:33N 31°19' E 121°45'1111.2
2015-Jul-04 04:33N 31°15' E 121°57'1211.9
2015-Jul-04 03:33N 31°11' E 122°10'1211.9
2015-Jul-04 02:33N 31°07' E 122°23'11 4.8
2015-Jul-04 00:18N 31°08' E 122°36'0 0.0
2015-Jul-03 23:30N 31°08' E 122°36'0 0.1
2015-Jul-03 22:33N 31°08' E 122°36'0 0.4
2015-Jul-03 21:31N 31°08' E 122°36'1 0.7
2015-Jul-03 20:28N 31°09' E 122°37'1 1.1
2015-Jul-03 19:32N 31°08' E 122°37'6 5.8
2015-Jul-03 18:33N 31°07' E 122°44'10 9.9
2015-Jul-03 17:32N 31°07' E 122°55'9 9.5
2015-Jul-03 16:32N 31°14' E 123°03'1110.3
2015-Jul-03 15:31N 31°23' E 123°08'1110.5
2015-Jul-03 14:31N 31°33' E 123°13'1010.3
2015-Jul-03 13:33N 31°42' E 123°18'10 9.6
2015-Jul-03 12:30N 31°52' E 123°17'1312.7
2015-Jul-03 11:30N 32°05' E 123°17'1313.3
2015-Jul-03 10:33N 32°18' E 123°17'1413.7
2015-Jul-03 09:33N 32°31' E 123°17'1414.2
2015-Jul-03 08:33N 32°45' E 123°17'1313.3
2015-Jul-03 07:33N 32°59' E 123°17'1413.4
2015-Jul-03 06:32N 33°12' E 123°17'2411.9
2015-Jul-03 04:33N 33°34' E 123°06'9211.3
2015-Jul-02 20:25N 34°01' E 121°21'1213.4
2015-Jul-02 19:33N 33°56' E 121°08'1514.2
2015-Jul-02 18:30N 33°46' E 120°55'  
Track history (hours):
 
Tides and Currents Weather Stations Pressure Air Temp Water Temp Dewpoint Dewpoint Depression Visibility Wind Speed Wind Dir Waves Ship Positions

Star Markella

Last reported at 2015-Jul-05 03:09 UTC. Time now 2015-Jul-06 09:14 UTC.
Position N 31°60' E 119°59'.

Length 229 m; draft 10.4 m.

Type: Cargo ship. MMSI: 538002640.

Date/timePositionNaut miles runAvg speedWind from/ knotsBaromVisibWave heightAir tempDewpointWater temp
2015-Jul-05 03:09N 31°60' E 119°59'5 8.2
2015-Jul-05 02:33N 31°57' E 120°05'9 8.7
2015-Jul-05 01:31N 31°56' E 120°15'8 7.8
2015-Jul-05 00:32N 31°58' E 120°24'6 6.2
2015-Jul-04 23:30N 32°02' E 120°30'1010.0
2015-Jul-04 22:33N 32°00' E 120°41'10 9.7
2015-Jul-04 21:33N 31°58' E 120°52'1211.6
2015-Jul-04 20:33N 31°47' E 120°57'1211.8
2015-Jul-04 19:33N 31°42' E 121°09'10 9.6
2015-Jul-04 18:33N 31°36' E 121°19'0 0.0
2015-Jul-04 17:33N 31°36' E 121°19'0 0.2
2015-Jul-04 16:33N 31°36' E 121°19'0 0.1
2015-Jul-04 15:33N 31°36' E 121°19'0 0.1
2015-Jul-04 14:33N 31°36' E 121°19'0 0.1
2015-Jul-04 13:33N 31°36' E 121°19'0 0.0
2015-Jul-04 12:31N 31°36' E 121°19'0 0.1
2015-Jul-04 11:33N 31°36' E 121°19'0 0.0
2015-Jul-04 10:33N 31°36' E 121°19'0 0.0
2015-Jul-04 09:33N 31°36' E 121°19'2 1.8
2015-Jul-04 08:33N 31°34' E 121°19'9 9.4
2015-Jul-04 07:33N 31°28' E 121°28'7 7.3
2015-Jul-04 06:34N 31°24' E 121°35'1010.0
2015-Jul-04 05:33N 31°19' E 121°45'1111.2
2015-Jul-04 04:33N 31°15' E 121°57'1211.9
2015-Jul-04 03:33N 31°11' E 122°10'1211.9
2015-Jul-04 02:33N 31°07' E 122°23'11 4.8
2015-Jul-04 00:18N 31°08' E 122°36'0 0.0
2015-Jul-03 23:30N 31°08' E 122°36'0 0.1
2015-Jul-03 22:33N 31°08' E 122°36'0 0.4
2015-Jul-03 21:31N 31°08' E 122°36'1 0.7
2015-Jul-03 20:28N 31°09' E 122°37'1 1.1
2015-Jul-03 19:32N 31°08' E 122°37'6 5.8
2015-Jul-03 18:33N 31°07' E 122°44'10 9.9
2015-Jul-03 17:32N 31°07' E 122°55'9 9.5
2015-Jul-03 16:32N 31°14' E 123°03'1110.3
2015-Jul-03 15:31N 31°23' E 123°08'1110.5
2015-Jul-03 14:31N 31°33' E 123°13'1010.3
2015-Jul-03 13:33N 31°42' E 123°18'10 9.6
2015-Jul-03 12:30N 31°52' E 123°17'1312.7
2015-Jul-03 11:30N 32°05' E 123°17'1313.3
2015-Jul-03 10:33N 32°18' E 123°17'1413.7
2015-Jul-03 09:33N 32°31' E 123°17'1414.2
2015-Jul-03 08:33N 32°45' E 123°17'1313.3
2015-Jul-03 07:33N 32°59' E 123°17'1413.4
2015-Jul-03 06:32N 33°12' E 123°17'2411.9
2015-Jul-03 04:33N 33°34' E 123°06'9211.3
2015-Jul-02 20:25N 34°01' E 121°21'1213.4
2015-Jul-02 19:33N 33°56' E 121°08'1514.2
2015-Jul-02 18:30N 33°46' E 120°55'  

Dump ship's entire track history